createdAt,value
2023-03-18T00:01:32.367Z,9.60
2023-03-18T00:04:01.249Z,9.60
2023-03-18T00:06:31.247Z,9.50
2023-03-18T00:08:59.631Z,9.50
2023-03-18T00:11:27.921Z,9.40
2023-03-18T00:13:56.299Z,9.30
2023-03-18T00:16:24.875Z,9.20
2023-03-18T00:18:53.264Z,9.30
2023-03-18T00:21:23.260Z,9.30
2023-03-18T00:23:56.579Z,9.30
2023-03-18T00:26:25.815Z,9.30
2023-03-18T00:28:54.142Z,9.40
2023-03-18T00:31:22.905Z,9.40
2023-03-18T00:33:51.311Z,9.40
2023-03-18T00:36:25.692Z,9.40
2023-03-18T00:38:58.029Z,9.40
2023-03-18T00:41:27.793Z,9.30
2023-03-18T00:43:57.715Z,9.30
2023-03-18T00:46:27.631Z,9.30
2023-03-18T00:48:57.557Z,9.10
2023-03-18T00:51:27.927Z,9.00
2023-03-18T00:54:00.468Z,9.00
2023-03-18T00:56:32.151Z,9.00
2023-03-18T00:59:01.323Z,9.00
2023-03-18T01:01:30.637Z,9.10
2023-03-18T01:04:01.570Z,9.20
2023-03-18T01:06:32.736Z,9.20
2023-03-18T01:09:05.188Z,9.20
2023-03-18T01:11:33.687Z,9.20
2023-03-18T01:14:02.436Z,9.20
2023-03-18T01:16:30.968Z,9.30
2023-03-18T01:19:00.023Z,9.20
2023-03-18T01:21:28.786Z,9.10
2023-03-18T01:24:02.342Z,8.90
2023-03-18T01:26:31.794Z,8.90
2023-03-18T01:29:02.913Z,8.80
2023-03-18T01:31:34.795Z,8.90
2023-03-18T01:34:08.555Z,9.00
2023-03-18T01:36:48.393Z,9.10
2023-03-18T01:39:18.876Z,8.90
2023-03-18T01:41:48.922Z,8.80
2023-03-18T01:44:24.889Z,8.90
2023-03-18T01:46:56.946Z,8.90
2023-03-18T01:49:30.777Z,9.10
2023-03-18T01:52:09.253Z,9.00
2023-03-18T01:54:42.404Z,9.00
2023-03-18T01:57:12.845Z,9.00
2023-03-18T01:59:43.528Z,9.00
2023-03-18T02:02:14.654Z,8.90
2023-03-18T02:04:44.913Z,8.90
2023-03-18T02:07:16.794Z,9.00
2023-03-18T02:09:47.700Z,9.00
2023-03-18T02:12:25.517Z,9.10
2023-03-18T02:14:58.808Z,9.10
2023-03-18T02:17:30.503Z,9.10
2023-03-18T02:20:10.708Z,9.10
2023-03-18T02:22:43.500Z,9.10
2023-03-18T02:25:23.103Z,9.10
2023-03-18T02:27:56.840Z,9.00
2023-03-18T02:30:34.220Z,9.00
2023-03-18T02:33:05.203Z,9.00
2023-03-18T02:35:35.539Z,9.00
2023-03-18T02:38:04.872Z,9.00
2023-03-18T02:40:35.885Z,9.00
2023-03-18T02:43:24.040Z,8.90
2023-03-18T02:46:13.852Z,9.00
2023-03-18T02:48:45.551Z,8.90
2023-03-18T02:51:16.238Z,8.80
2023-03-18T02:53:46.288Z,8.80
2023-03-18T02:56:15.359Z,8.60
2023-03-18T02:58:46.633Z,8.30
2023-03-18T03:01:16.875Z,8.40
2023-03-18T03:03:45.618Z,8.40
2023-03-18T03:06:15.363Z,8.50
2023-03-18T03:08:43.854Z,8.40
2023-03-18T03:11:12.928Z,8.20
2023-03-18T03:13:45.423Z,8.20
2023-03-18T03:16:18.493Z,8.20
2023-03-18T03:18:47.268Z,8.20
2023-03-18T03:21:17.108Z,8.20
2023-03-18T03:23:46.683Z,8.20
2023-03-18T03:26:16.962Z,8.10
2023-03-18T03:28:46.500Z,8.00
2023-03-18T03:31:17.128Z,7.90
2023-03-18T03:33:45.875Z,8.00
2023-03-18T03:36:17.146Z,8.10
2023-03-18T03:38:49.225Z,8.00
2023-03-18T03:41:18.034Z,7.80
2023-03-18T03:43:46.447Z,7.80
2023-03-18T03:46:16.340Z,8.00
2023-03-18T03:48:45.380Z,8.10
2023-03-18T03:51:15.972Z,8.00
2023-03-18T03:53:46.326Z,7.90
2023-03-18T03:56:15.819Z,7.80
2023-03-18T03:58:44.450Z,7.90
2023-03-18T04:01:13.578Z,7.90
2023-03-18T04:03:44.327Z,7.90
2023-03-18T04:06:13.406Z,7.90
2023-03-18T04:08:49.429Z,7.90
2023-03-18T04:11:17.830Z,7.80
2023-03-18T04:13:46.610Z,7.70
2023-03-18T04:16:17.190Z,7.90
2023-03-18T04:18:47.007Z,7.90
2023-03-18T04:21:16.532Z,8.00
2023-03-18T04:23:49.094Z,7.90
2023-03-18T04:26:18.402Z,7.90
2023-03-18T04:28:47.083Z,7.90
2023-03-18T04:31:17.851Z,7.90
2023-03-18T04:33:47.828Z,8.00
2023-03-18T04:36:16.715Z,8.00
2023-03-18T04:38:45.133Z,8.00
2023-03-18T04:41:13.640Z,8.00
2023-03-18T04:43:41.961Z,8.00
2023-03-18T04:46:12.170Z,8.10
2023-03-18T04:48:41.164Z,8.10
2023-03-18T04:51:12.675Z,8.00
2023-03-18T04:53:42.213Z,8.10
2023-03-18T04:56:12.713Z,8.10
2023-03-18T04:58:49.428Z,8.00
2023-03-18T05:01:23.525Z,7.90
2023-03-18T05:03:52.918Z,7.90
2023-03-18T05:06:27.108Z,7.90
2023-03-18T05:09:08.927Z,7.90
2023-03-18T05:11:38.300Z,8.00
2023-03-18T05:14:22.611Z,8.10
2023-03-18T05:16:51.898Z,8.10
2023-03-18T05:19:20.822Z,8.10
2023-03-18T05:22:04.946Z,8.20
2023-03-18T05:24:33.438Z,8.30
2023-03-18T05:27:01.867Z,8.30
2023-03-18T05:29:36.632Z,8.40
2023-03-18T05:32:16.760Z,8.50
2023-03-18T05:34:47.704Z,8.50
2023-03-18T05:37:18.298Z,8.60
2023-03-18T05:39:59.409Z,8.60
2023-03-18T05:42:28.263Z,8.60
2023-03-18T05:44:57.117Z,8.60
2023-03-18T05:47:27.167Z,8.60
2023-03-18T05:50:13.540Z,8.60
2023-03-18T05:52:44.420Z,8.80
2023-03-18T05:55:20.048Z,8.80
2023-03-18T05:57:48.803Z,8.80
2023-03-18T06:00:19.350Z,8.80
2023-03-18T06:02:52.514Z,8.80
2023-03-18T06:05:21.179Z,8.70
2023-03-18T06:07:51.619Z,8.70
2023-03-18T06:10:21.093Z,8.80
2023-03-18T06:12:50.689Z,8.90
2023-03-18T06:15:21.518Z,8.90
2023-03-18T06:17:50.650Z,8.80
2023-03-18T06:20:19.892Z,8.90
2023-03-18T06:22:50.440Z,9.00
2023-03-18T06:25:20.670Z,9.10
2023-03-18T06:27:50.738Z,9.20
2023-03-18T06:30:22.221Z,9.30
2023-03-18T06:32:51.046Z,9.30
2023-03-18T06:35:19.955Z,9.40
2023-03-18T06:37:48.665Z,9.50
2023-03-18T06:40:18.673Z,9.60
2023-03-18T06:42:49.045Z,9.80
2023-03-18T06:45:29.329Z,9.90
2023-03-18T06:48:02.363Z,10.10
2023-03-18T06:50:33.073Z,10.20
2023-03-18T06:53:02.420Z,10.30
2023-03-18T06:55:35.797Z,10.40
2023-03-18T06:58:06.514Z,10.50
2023-03-18T07:00:45.532Z,10.50
2023-03-18T07:03:20.386Z,10.50
2023-03-18T07:05:51.160Z,10.50
2023-03-18T07:08:20.119Z,10.70
2023-03-18T07:10:52.834Z,10.80
2023-03-18T07:13:21.836Z,10.90
2023-03-18T07:15:50.221Z,10.90
2023-03-18T07:18:19.974Z,11.00
2023-03-18T07:20:48.459Z,11.10
2023-03-18T07:23:17.147Z,11.30
2023-03-18T07:25:46.426Z,11.40
2023-03-18T07:28:16.440Z,11.40
2023-03-18T07:30:45.120Z,11.50
2023-03-18T07:33:13.691Z,11.60
2023-03-18T07:35:42.125Z,11.60
2023-03-18T07:38:11.762Z,11.80
2023-03-18T07:40:40.395Z,11.80
2023-03-18T07:43:09.288Z,11.80
2023-03-18T07:45:39.356Z,11.90
2023-03-18T07:48:08.093Z,12.00
2023-03-18T07:50:36.620Z,12.00
2023-03-18T07:53:05.059Z,12.00
2023-03-18T07:55:34.276Z,12.00
2023-03-18T07:58:04.877Z,12.20
2023-03-18T08:00:33.780Z,12.20
2023-03-18T08:03:04.085Z,12.30
2023-03-18T08:05:34.181Z,12.40
2023-03-18T08:08:04.382Z,12.40
2023-03-18T08:10:35.560Z,12.50
2023-03-18T08:13:04.463Z,12.50
2023-03-18T08:15:33.132Z,12.50
2023-03-18T08:18:03.102Z,12.50
2023-03-18T08:20:31.780Z,12.60
2023-03-18T08:23:00.279Z,12.70
2023-03-18T08:25:28.704Z,12.90
2023-03-18T08:27:57.061Z,13.00
2023-03-18T08:30:28.779Z,12.90
2023-03-18T08:32:58.461Z,13.00
2023-03-18T08:35:28.188Z,13.00
2023-03-18T08:37:57.191Z,13.10
2023-03-18T08:40:26.187Z,13.20
2023-03-18T08:42:54.717Z,13.20
2023-03-18T08:45:23.107Z,13.40
2023-03-18T08:47:51.549Z,13.50
2023-03-18T08:50:20.929Z,13.70
2023-03-18T08:52:51.401Z,13.80
2023-03-18T08:55:21.536Z,13.90
2023-03-18T08:57:50.178Z,13.90
2023-03-18T09:00:20.274Z,13.90
2023-03-18T09:02:48.873Z,13.80
2023-03-18T09:05:17.997Z,13.80
2023-03-18T09:07:46.711Z,13.90
2023-03-18T09:10:17.913Z,14.10
2023-03-18T09:12:48.132Z,14.20
2023-03-18T09:15:21.017Z,14.20
2023-03-18T09:18:08.112Z,14.20
2023-03-18T09:20:39.066Z,14.20
2023-03-18T09:23:07.801Z,14.20
2023-03-18T09:25:37.567Z,14.20
2023-03-18T09:28:06.400Z,14.20
2023-03-18T09:30:34.976Z,14.20
2023-03-18T09:33:03.508Z,14.20
2023-03-18T09:35:32.584Z,14.20
2023-03-18T09:38:01.488Z,14.30
2023-03-18T09:40:32.848Z,14.40
2023-03-18T09:43:21.264Z,14.40
2023-03-18T09:46:00.689Z,14.50
2023-03-18T09:48:41.719Z,14.60
2023-03-18T09:51:22.079Z,14.60
2023-03-18T09:53:54.160Z,14.50
2023-03-18T09:56:26.700Z,14.60
2023-03-18T09:59:00.530Z,14.60
2023-03-18T10:01:30.404Z,14.70
2023-03-18T10:04:04.048Z,14.90
2023-03-18T10:06:32.845Z,14.90
2023-03-18T10:09:10.986Z,15.00
2023-03-18T10:11:42.892Z,15.00
2023-03-18T10:14:36.183Z,15.10
2023-03-18T10:17:14.892Z,15.10
2023-03-18T10:19:48.651Z,15.20
2023-03-18T10:22:49.363Z,15.10
2023-03-18T10:25:22.502Z,15.20
2023-03-18T10:28:02.112Z,15.30
2023-03-18T10:30:48.779Z,15.30
2023-03-18T10:33:26.221Z,15.30
2023-03-18T10:36:00.874Z,15.40
2023-03-18T10:38:36.457Z,15.50
2023-03-18T10:41:14.314Z,15.50
2023-03-18T10:43:43.086Z,15.70
2023-03-18T10:46:16.971Z,15.80
2023-03-18T10:48:49.270Z,15.90
2023-03-18T10:51:22.955Z,16.00
2023-03-18T10:53:58.866Z,16.20
2023-03-18T10:56:27.514Z,16.30
2023-03-18T10:58:56.492Z,16.40
2023-03-18T11:01:29.808Z,16.40
2023-03-18T11:04:03.410Z,16.50
2023-03-18T11:06:41.777Z,16.60
2023-03-18T11:09:12.506Z,16.60
2023-03-18T11:11:42.331Z,16.90
2023-03-18T11:14:17.214Z,17.10
2023-03-18T11:16:57.666Z,17.30
2023-03-18T11:19:30.394Z,17.30
2023-03-18T11:22:20.797Z,17.10
2023-03-18T11:25:06.188Z,16.90
2023-03-18T11:27:41.592Z,17.00
2023-03-18T11:30:31.249Z,17.20
2023-03-18T11:33:14.415Z,17.40
2023-03-18T11:35:48.153Z,17.60
2023-03-18T11:38:19.087Z,17.80
2023-03-18T11:40:48.059Z,17.70
2023-03-18T11:43:20.276Z,17.50
2023-03-18T11:45:52.473Z,17.30
2023-03-18T11:48:30.645Z,17.50
2023-03-18T11:51:39.741Z,17.50
2023-03-18T11:54:24.156Z,17.40
2023-03-18T11:56:58.768Z,17.40
2023-03-18T11:59:52.739Z,17.50
2023-03-18T12:02:40.591Z,17.80
2023-03-18T12:05:35.827Z,17.60
2023-03-18T12:08:14.912Z,17.40
2023-03-18T12:10:48.738Z,17.50
2023-03-18T12:13:31.781Z,17.80
2023-03-18T12:16:08.244Z,18.00
2023-03-18T12:18:51.002Z,17.90
2023-03-18T12:21:53.861Z,17.70
2023-03-18T12:24:35.257Z,17.50
2023-03-18T12:27:09.645Z,17.40
2023-03-18T12:30:01.342Z,17.50
2023-03-18T12:32:34.195Z,17.50
2023-03-18T12:35:20.540Z,17.70
2023-03-18T12:38:06.017Z,17.80
2023-03-18T12:40:44.883Z,17.90
2023-03-18T12:43:33.148Z,17.80
2023-03-18T12:46:10.795Z,17.80
2023-03-18T12:48:49.664Z,17.80
2023-03-18T12:51:22.719Z,17.70
2023-03-18T12:53:57.023Z,17.50
2023-03-18T12:56:28.204Z,17.80
2023-03-18T12:59:03.325Z,17.90
2023-03-18T13:01:37.298Z,18.10
2023-03-18T13:04:08.558Z,18.00
2023-03-18T13:06:41.740Z,18.10
2023-03-18T13:09:20.713Z,18.00
2023-03-18T13:12:07.500Z,17.90
2023-03-18T13:14:57.659Z,18.10
2023-03-18T13:17:30.326Z,18.10
2023-03-18T13:20:10.269Z,18.00
2023-03-18T13:23:07.424Z,18.00
2023-03-18T13:25:44.951Z,18.00
2023-03-18T13:28:33.415Z,18.10
2023-03-18T13:31:11.471Z,18.30
2023-03-18T13:34:13.099Z,18.40
2023-03-18T13:37:00.959Z,18.40
2023-03-18T13:40:09.555Z,18.00
2023-03-18T13:42:40.780Z,18.30
2023-03-18T13:45:22.477Z,18.40
2023-03-18T13:47:58.219Z,18.30
2023-03-18T13:50:35.558Z,18.40
2023-03-18T13:53:06.383Z,18.80
2023-03-18T13:55:43.093Z,18.70
2023-03-18T13:58:30.035Z,19.10
2023-03-18T14:01:28.777Z,20.30
2023-03-18T14:04:03.097Z,20.60
2023-03-18T14:06:48.616Z,20.90
2023-03-18T14:09:47.452Z,20.50
2023-03-18T14:12:22.391Z,21.00
2023-03-18T14:15:06.081Z,22.00
2023-03-18T14:17:46.408Z,23.30
2023-03-18T14:20:27.385Z,23.60
2023-03-18T14:22:57.094Z,23.60
2023-03-18T14:25:41.948Z,22.50
2023-03-18T14:28:23.207Z,21.00
2023-03-18T14:31:14.233Z,19.40
2023-03-18T14:34:05.977Z,18.40
2023-03-18T14:37:09.409Z,17.60
2023-03-18T14:39:41.509Z,17.20
2023-03-18T14:42:17.856Z,17.00
2023-03-18T14:44:49.085Z,16.80
2023-03-18T14:47:37.523Z,16.70
2023-03-18T14:50:15.255Z,16.60
2023-03-18T14:52:48.939Z,16.40
2023-03-18T14:55:20.750Z,16.30
2023-03-18T14:57:49.273Z,16.10
2023-03-18T15:00:20.652Z,16.00
2023-03-18T15:03:00.716Z,15.70
2023-03-18T15:05:36.098Z,15.40
2023-03-18T15:08:10.830Z,15.40
2023-03-18T15:10:40.299Z,15.30
2023-03-18T15:13:12.958Z,15.30
2023-03-18T15:15:42.773Z,15.40
2023-03-18T15:18:19.721Z,15.50
2023-03-18T15:20:52.411Z,15.50
2023-03-18T15:23:28.652Z,15.40
2023-03-18T15:25:57.317Z,15.20
2023-03-18T15:28:28.472Z,15.00
2023-03-18T15:30:59.924Z,14.80
2023-03-18T15:33:36.752Z,14.90
2023-03-18T15:36:07.361Z,15.00
2023-03-18T15:38:36.034Z,14.80
2023-03-18T15:41:07.520Z,14.70
2023-03-18T15:43:42.323Z,14.60
2023-03-18T15:46:18.213Z,14.60
2023-03-18T15:48:54.851Z,14.50
2023-03-18T15:51:27.220Z,14.60
2023-03-18T15:53:57.900Z,14.60
2023-03-18T15:56:29.522Z,14.50
2023-03-18T15:59:06.948Z,14.40
2023-03-18T16:01:36.369Z,14.40
2023-03-18T16:04:07.894Z,14.40
2023-03-18T16:06:36.539Z,14.40
2023-03-18T16:09:15.890Z,14.30
2023-03-18T16:11:48.554Z,14.20
2023-03-18T16:14:19.053Z,14.20
2023-03-18T16:16:47.816Z,14.20
2023-03-18T16:19:25.376Z,14.10
2023-03-18T16:21:54.170Z,13.90
2023-03-18T16:24:22.585Z,13.90
2023-03-18T16:26:53.009Z,13.80
2023-03-18T16:29:27.886Z,13.70
2023-03-18T16:31:57.214Z,13.60
2023-03-18T16:34:27.879Z,13.60
2023-03-18T16:36:56.759Z,13.50
2023-03-18T16:39:27.387Z,13.40
2023-03-18T16:41:56.489Z,13.30
2023-03-18T16:44:24.997Z,13.20
2023-03-18T16:46:56.617Z,13.20
2023-03-18T16:49:30.947Z,13.20
2023-03-18T16:52:00.689Z,13.20
2023-03-18T16:54:30.680Z,13.20
2023-03-18T16:57:01.693Z,13.20
2023-03-18T16:59:32.819Z,13.10
2023-03-18T17:02:04.270Z,13.10
2023-03-18T17:04:35.946Z,13.00
2023-03-18T17:07:05.776Z,13.00
2023-03-18T17:09:34.507Z,13.10
2023-03-18T17:12:07.598Z,13.00
2023-03-18T17:14:39.888Z,13.00
2023-03-18T17:17:16.432Z,12.90
2023-03-18T17:19:46.355Z,12.80
2023-03-18T17:22:22.702Z,12.80
2023-03-18T17:24:51.841Z,12.80
2023-03-18T17:27:22.184Z,12.80
2023-03-18T17:29:51.169Z,12.80
2023-03-18T17:32:22.336Z,12.80
2023-03-18T17:34:53.038Z,12.80
2023-03-18T17:37:23.692Z,12.70
2023-03-18T17:39:52.161Z,12.70
2023-03-18T17:42:30.295Z,12.70
2023-03-18T17:45:03.432Z,12.70
2023-03-18T17:47:32.012Z,12.60
2023-03-18T17:50:01.815Z,12.60
2023-03-18T17:52:30.696Z,12.60
2023-03-18T17:54:59.229Z,12.60
2023-03-18T17:57:28.003Z,12.60
2023-03-18T17:59:57.676Z,12.50
2023-03-18T18:02:26.139Z,12.50
2023-03-18T18:04:54.510Z,12.40
2023-03-18T18:07:24.348Z,12.40
2023-03-18T18:09:52.905Z,12.50
2023-03-18T18:12:25.394Z,12.50
2023-03-18T18:14:53.798Z,12.30
2023-03-18T18:17:22.060Z,12.30
2023-03-18T18:19:50.627Z,12.30
2023-03-18T18:22:21.985Z,12.30
2023-03-18T18:24:53.042Z,12.30
2023-03-18T18:27:21.644Z,12.10
2023-03-18T18:29:50.320Z,11.90
2023-03-18T18:32:19.122Z,11.80
2023-03-18T18:34:47.528Z,11.80
2023-03-18T18:37:15.957Z,11.70
2023-03-18T18:39:44.328Z,11.70
2023-03-18T18:42:14.110Z,11.60
2023-03-18T18:44:43.431Z,11.60
2023-03-18T18:47:19.347Z,11.70
2023-03-18T18:49:48.094Z,11.70
2023-03-18T18:52:17.036Z,11.50
2023-03-18T18:54:45.519Z,11.40
2023-03-18T18:57:26.833Z,11.40
2023-03-18T18:59:55.797Z,11.40
2023-03-18T19:02:31.336Z,11.40
2023-03-18T19:05:00.146Z,11.40
2023-03-18T19:07:29.416Z,11.30
2023-03-18T19:09:57.832Z,11.30
2023-03-18T19:12:27.819Z,11.20
2023-03-18T19:14:56.506Z,11.10
2023-03-18T19:17:25.755Z,11.00
2023-03-18T19:19:54.860Z,10.90
2023-03-18T19:22:23.508Z,10.90
2023-03-18T19:24:52.098Z,10.90
2023-03-18T19:27:24.065Z,10.80
2023-03-18T19:29:57.639Z,10.80
2023-03-18T19:32:27.147Z,10.90
2023-03-18T19:34:56.345Z,10.90
2023-03-18T19:37:28.579Z,10.90
2023-03-18T19:39:57.287Z,10.80
2023-03-18T19:42:25.816Z,10.80
2023-03-18T19:44:56.594Z,10.70
2023-03-18T19:47:28.198Z,10.60
2023-03-18T19:49:56.855Z,10.60
2023-03-18T19:52:27.378Z,10.60
2023-03-18T19:54:56.327Z,10.50
2023-03-18T19:57:27.637Z,10.40
2023-03-18T19:59:58.729Z,10.50
2023-03-18T20:02:29.737Z,10.60
2023-03-18T20:05:00.723Z,10.50
2023-03-18T20:07:31.044Z,10.50
2023-03-18T20:09:59.415Z,10.40
2023-03-18T20:12:33.571Z,10.30
2023-03-18T20:15:04.632Z,10.30
2023-03-18T20:17:38.380Z,10.30
2023-03-18T20:20:16.465Z,10.30
2023-03-18T20:22:48.205Z,10.30
2023-03-18T20:25:22.569Z,10.30
2023-03-18T20:27:55.681Z,10.20
2023-03-18T20:30:28.747Z,10.20
2023-03-18T20:32:58.076Z,10.20
2023-03-18T20:35:29.324Z,10.20
2023-03-18T20:37:59.589Z,10.10
2023-03-18T20:40:29.833Z,10.10
2023-03-18T20:42:58.862Z,10.00
2023-03-18T20:45:28.826Z,10.00
2023-03-18T20:47:57.919Z,10.10
2023-03-18T20:50:29.947Z,10.10
2023-03-18T20:52:58.776Z,10.00
2023-03-18T20:55:30.733Z,10.00
2023-03-18T20:58:00.712Z,10.00
2023-03-18T21:00:32.885Z,10.00
2023-03-18T21:03:03.763Z,10.00
2023-03-18T21:05:32.354Z,10.00
2023-03-18T21:08:00.780Z,10.00
2023-03-18T21:10:29.206Z,9.90
2023-03-18T21:12:57.595Z,10.00
2023-03-18T21:15:28.258Z,10.00
2023-03-18T21:17:58.495Z,10.00
2023-03-18T21:20:29.591Z,10.00
2023-03-18T21:22:58.019Z,9.90
2023-03-18T21:25:28.273Z,9.90
2023-03-18T21:27:56.808Z,9.90
2023-03-18T21:30:25.283Z,9.80
2023-03-18T21:32:53.777Z,9.70
2023-03-18T21:35:25.799Z,9.70
2023-03-18T21:37:54.973Z,9.90
2023-03-18T21:40:25.031Z,9.90
2023-03-18T21:42:53.721Z,9.90
2023-03-18T21:45:24.336Z,9.90
2023-03-18T21:47:53.657Z,9.80
2023-03-18T21:50:25.444Z,9.80
2023-03-18T21:52:54.868Z,9.80
2023-03-18T21:55:23.625Z,9.80
2023-03-18T21:57:52.007Z,9.80
2023-03-18T22:00:21.940Z,9.80
2023-03-18T22:02:50.661Z,9.90
2023-03-18T22:05:24.752Z,9.70
2023-03-18T22:07:54.587Z,9.60
2023-03-18T22:10:24.538Z,9.60
2023-03-18T22:12:53.004Z,9.40
2023-03-18T22:15:36.912Z,9.40
2023-03-18T22:18:08.552Z,9.50
2023-03-18T22:20:37.530Z,9.60
2023-03-18T22:23:16.427Z,9.70
2023-03-18T22:25:45.934Z,9.50
2023-03-18T22:28:14.439Z,9.40
2023-03-18T22:30:45.177Z,9.50
2023-03-18T22:33:21.958Z,9.40
2023-03-18T22:35:50.392Z,9.30
2023-03-18T22:38:21.719Z,9.20
2023-03-18T22:40:52.868Z,9.10
2023-03-18T22:43:30.138Z,9.10
2023-03-18T22:45:59.136Z,9.10
2023-03-18T22:48:27.900Z,9.10
2023-03-18T22:50:59.204Z,9.00
2023-03-18T22:53:31.436Z,8.90
2023-03-18T22:56:08.188Z,8.90
2023-03-18T22:58:36.659Z,8.90
2023-03-18T23:01:05.655Z,8.90
2023-03-18T23:03:36.036Z,8.80
2023-03-18T23:06:05.456Z,8.70
2023-03-18T23:08:35.191Z,8.70
2023-03-18T23:11:03.935Z,8.50
2023-03-18T23:13:36.876Z,8.60
2023-03-18T23:16:06.888Z,8.50
2023-03-18T23:18:35.532Z,8.40
2023-03-18T23:21:03.871Z,8.30
2023-03-18T23:23:32.332Z,8.30
2023-03-18T23:26:02.166Z,8.20
2023-03-18T23:28:33.037Z,8.20
2023-03-18T23:31:02.979Z,8.10
2023-03-18T23:33:32.098Z,8.00
2023-03-18T23:36:00.658Z,8.00
2023-03-18T23:38:28.964Z,8.10
2023-03-18T23:40:57.340Z,8.00
2023-03-18T23:43:27.060Z,8.10
2023-03-18T23:45:55.593Z,8.20
2023-03-18T23:50:52.758Z,8.30
2023-03-18T23:53:21.079Z,8.40
2023-03-18T23:55:50.177Z,8.30
2023-03-18T23:58:18.682Z,8.20
